sensor_id;sensor_type;location;lat;lon;timestamp;P1;durP1;ratioP1;P2;durP2;ratioP2
22097;SDS011;11215;51.938;8.464;2022-09-21T00:01:03;3.73;;;3.03;;
22097;SDS011;11215;51.938;8.464;2022-09-21T00:03:33;3.67;;;3.20;;
22097;SDS011;11215;51.938;8.464;2022-09-21T00:06:03;3.30;;;3.00;;
22097;SDS011;11215;51.938;8.464;2022-09-21T00:08:30;3.33;;;2.97;;
22097;SDS011;11215;51.938;8.464;2022-09-21T00:10:55;3.23;;;2.93;;
22097;SDS011;11215;51.938;8.464;2022-09-21T00:13:21;3.90;;;2.70;;
22097;SDS011;11215;51.938;8.464;2022-09-21T00:15:47;3.03;;;2.43;;
22097;SDS011;11215;51.938;8.464;2022-09-21T00:18:14;3.97;;;2.70;;
22097;SDS011;11215;51.938;8.464;2022-09-21T00:20:40;2.47;;;2.27;;
22097;SDS011;11215;51.938;8.464;2022-09-21T00:23:09;2.77;;;2.30;;
22097;SDS011;11215;51.938;8.464;2022-09-21T00:25:35;2.83;;;2.53;;
22097;SDS011;11215;51.938;8.464;2022-09-21T00:28:00;5.20;;;2.50;;
22097;SDS011;11215;51.938;8.464;2022-09-21T00:30:26;3.50;;;2.60;;
22097;SDS011;11215;51.938;8.464;2022-09-21T00:32:52;3.43;;;2.40;;
22097;SDS011;11215;51.938;8.464;2022-09-21T00:35:18;2.87;;;2.67;;
22097;SDS011;11215;51.938;8.464;2022-09-21T00:37:45;2.97;;;2.67;;
22097;SDS011;11215;51.938;8.464;2022-09-21T00:40:11;4.10;;;2.57;;
22097;SDS011;11215;51.938;8.464;2022-09-21T00:42:36;3.10;;;2.80;;
22097;SDS011;11215;51.938;8.464;2022-09-21T00:45:03;2.93;;;2.40;;
22097;SDS011;11215;51.938;8.464;2022-09-21T00:47:37;6.07;;;2.80;;
22097;SDS011;11215;51.938;8.464;2022-09-21T00:50:06;3.87;;;3.03;;
22097;SDS011;11215;51.938;8.464;2022-09-21T00:52:36;4.27;;;2.90;;
22097;SDS011;11215;51.938;8.464;2022-09-21T00:57:35;3.90;;;2.73;;
22097;SDS011;11215;51.938;8.464;2022-09-21T01:00:03;4.30;;;2.77;;
22097;SDS011;11215;51.938;8.464;2022-09-21T01:02:33;3.10;;;2.13;;
22097;SDS011;11215;51.938;8.464;2022-09-21T01:05:00;3.60;;;2.30;;
22097;SDS011;11215;51.938;8.464;2022-09-21T01:07:29;2.60;;;2.37;;
22097;SDS011;11215;51.938;8.464;2022-09-21T01:10:00;3.50;;;2.50;;
22097;SDS011;11215;51.938;8.464;2022-09-21T01:32:12;3.67;;;2.90;;
22097;SDS011;11215;51.938;8.464;2022-09-21T01:37:23;3.90;;;3.13;;
22097;SDS011;11215;51.938;8.464;2022-09-21T01:39:55;5.87;;;3.53;;
22097;SDS011;11215;51.938;8.464;2022-09-21T01:42:26;4.43;;;3.10;;
22097;SDS011;11215;51.938;8.464;2022-09-21T01:44:53;4.03;;;2.77;;
22097;SDS011;11215;51.938;8.464;2022-09-21T01:47:21;3.50;;;2.73;;
22097;SDS011;11215;51.938;8.464;2022-09-21T01:49:51;3.20;;;2.73;;
22097;SDS011;11215;51.938;8.464;2022-09-21T01:52:26;3.90;;;2.63;;
22097;SDS011;11215;51.938;8.464;2022-09-21T01:54:58;3.80;;;2.60;;
22097;SDS011;11215;51.938;8.464;2022-09-21T02:00:22;3.43;;;2.37;;
22097;SDS011;11215;51.938;8.464;2022-09-21T02:02:54;4.07;;;2.73;;
22097;SDS011;11215;51.938;8.464;2022-09-21T02:05:24;2.70;;;2.40;;
22097;SDS011;11215;51.938;8.464;2022-09-21T02:07:52;5.77;;;3.03;;
22097;SDS011;11215;51.938;8.464;2022-09-21T02:10:21;2.90;;;2.60;;
22097;SDS011;11215;51.938;8.464;2022-09-21T02:12:53;3.40;;;2.63;;
22097;SDS011;11215;51.938;8.464;2022-09-21T02:15:23;3.73;;;3.13;;
22097;SDS011;11215;51.938;8.464;2022-09-21T02:18:06;4.23;;;2.70;;
22097;SDS011;11215;51.938;8.464;2022-09-21T02:20:40;3.20;;;2.83;;
22097;SDS011;11215;51.938;8.464;2022-09-21T02:28:37;3.30;;;2.93;;
22097;SDS011;11215;51.938;8.464;2022-09-21T02:31:25;3.20;;;2.63;;
22097;SDS011;11215;51.938;8.464;2022-09-21T02:34:07;3.63;;;2.23;;
22097;SDS011;11215;51.938;8.464;2022-09-21T02:36:45;3.40;;;2.90;;
22097;SDS011;11215;51.938;8.464;2022-09-21T02:39:18;5.93;;;2.70;;
22097;SDS011;11215;51.938;8.464;2022-09-21T02:42:02;3.23;;;2.70;;
22097;SDS011;11215;51.938;8.464;2022-09-21T02:44:33;7.27;;;3.00;;
22097;SDS011;11215;51.938;8.464;2022-09-21T02:47:08;4.60;;;2.70;;
22097;SDS011;11215;51.938;8.464;2022-09-21T02:49:38;4.07;;;2.50;;
22097;SDS011;11215;51.938;8.464;2022-09-21T02:52:08;2.93;;;2.40;;
22097;SDS011;11215;51.938;8.464;2022-09-21T02:54:37;4.43;;;2.73;;
22097;SDS011;11215;51.938;8.464;2022-09-21T02:57:05;4.00;;;2.93;;
22097;SDS011;11215;51.938;8.464;2022-09-21T02:59:32;3.83;;;2.40;;
22097;SDS011;11215;51.938;8.464;2022-09-21T03:01:58;3.13;;;2.30;;
22097;SDS011;11215;51.938;8.464;2022-09-21T03:04:24;3.00;;;2.40;;
22097;SDS011;11215;51.938;8.464;2022-09-21T03:06:51;3.43;;;2.37;;
22097;SDS011;11215;51.938;8.464;2022-09-21T03:09:17;5.07;;;2.47;;
22097;SDS011;11215;51.938;8.464;2022-09-21T03:11:45;2.80;;;1.90;;
22097;SDS011;11215;51.938;8.464;2022-09-21T03:14:10;2.43;;;2.20;;
22097;SDS011;11215;51.938;8.464;2022-09-21T03:16:36;2.70;;;2.10;;
22097;SDS011;11215;51.938;8.464;2022-09-21T03:19:03;3.17;;;2.03;;
22097;SDS011;11215;51.938;8.464;2022-09-21T03:21:29;2.10;;;1.90;;
22097;SDS011;11215;51.938;8.464;2022-09-21T03:23:56;2.77;;;2.00;;
22097;SDS011;11215;51.938;8.464;2022-09-21T03:26:21;4.17;;;2.10;;
22097;SDS011;11215;51.938;8.464;2022-09-21T03:28:48;2.20;;;1.90;;
22097;SDS011;11215;51.938;8.464;2022-09-21T03:31:14;3.23;;;2.10;;
22097;SDS011;11215;51.938;8.464;2022-09-21T03:33:40;3.43;;;2.00;;
22097;SDS011;11215;51.938;8.464;2022-09-21T03:36:05;4.83;;;2.60;;
22097;SDS011;11215;51.938;8.464;2022-09-21T03:38:32;2.90;;;2.17;;
22097;SDS011;11215;51.938;8.464;2022-09-21T03:40:57;2.97;;;2.63;;
22097;SDS011;11215;51.938;8.464;2022-09-21T03:43:23;2.30;;;2.07;;
22097;SDS011;11215;51.938;8.464;2022-09-21T03:45:49;3.63;;;2.10;;
22097;SDS011;11215;51.938;8.464;2022-09-21T03:48:15;2.73;;;2.20;;
22097;SDS011;11215;51.938;8.464;2022-09-21T03:50:41;5.03;;;2.33;;
22097;SDS011;11215;51.938;8.464;2022-09-21T03:53:07;4.50;;;2.20;;
22097;SDS011;11215;51.938;8.464;2022-09-21T03:55:34;3.50;;;2.87;;
22097;SDS011;11215;51.938;8.464;2022-09-21T03:58:00;5.57;;;3.57;;
22097;SDS011;11215;51.938;8.464;2022-09-21T04:00:26;5.67;;;3.30;;
22097;SDS011;11215;51.938;8.464;2022-09-21T04:02:52;3.57;;;3.27;;
22097;SDS011;11215;51.938;8.464;2022-09-21T04:05:18;4.20;;;3.23;;
22097;SDS011;11215;51.938;8.464;2022-09-21T04:07:44;5.43;;;2.80;;
22097;SDS011;11215;51.938;8.464;2022-09-21T04:10:11;3.47;;;2.17;;
22097;SDS011;11215;51.938;8.464;2022-09-21T04:12:42;3.60;;;2.67;;
22097;SDS011;11215;51.938;8.464;2022-09-21T04:15:12;2.90;;;2.40;;
22097;SDS011;11215;51.938;8.464;2022-09-21T04:17:38;2.97;;;2.13;;
22097;SDS011;11215;51.938;8.464;2022-09-21T04:20:05;3.67;;;2.27;;
22097;SDS011;11215;51.938;8.464;2022-09-21T04:22:31;3.77;;;1.97;;
22097;SDS011;11215;51.938;8.464;2022-09-21T04:24:57;3.00;;;1.90;;
22097;SDS011;11215;51.938;8.464;2022-09-21T04:27:22;2.30;;;2.10;;
22097;SDS011;11215;51.938;8.464;2022-09-21T04:29:48;2.50;;;2.00;;
22097;SDS011;11215;51.938;8.464;2022-09-21T04:32:14;3.00;;;1.77;;
22097;SDS011;11215;51.938;8.464;2022-09-21T04:34:40;2.20;;;1.87;;
22097;SDS011;11215;51.938;8.464;2022-09-21T04:37:06;2.37;;;1.87;;
22097;SDS011;11215;51.938;8.464;2022-09-21T04:39:32;2.30;;;1.70;;
22097;SDS011;11215;51.938;8.464;2022-09-21T04:41:59;1.73;;;1.53;;
22097;SDS011;11215;51.938;8.464;2022-09-21T04:44:25;2.13;;;1.90;;
22097;SDS011;11215;51.938;8.464;2022-09-21T04:46:51;3.40;;;2.23;;
22097;SDS011;11215;51.938;8.464;2022-09-21T04:49:16;2.17;;;1.53;;
22097;SDS011;11215;51.938;8.464;2022-09-21T04:51:42;1.83;;;1.70;;
22097;SDS011;11215;51.938;8.464;2022-09-21T04:54:08;3.10;;;2.17;;
22097;SDS011;11215;51.938;8.464;2022-09-21T04:56:34;3.43;;;2.00;;
22097;SDS011;11215;51.938;8.464;2022-09-21T04:58:59;4.13;;;2.40;;
22097;SDS011;11215;51.938;8.464;2022-09-21T05:01:25;2.77;;;1.80;;
22097;SDS011;11215;51.938;8.464;2022-09-21T05:03:51;3.03;;;2.23;;
22097;SDS011;11215;51.938;8.464;2022-09-21T05:06:17;4.27;;;2.70;;
22097;SDS011;11215;51.938;8.464;2022-09-21T05:08:42;3.13;;;2.83;;
22097;SDS011;11215;51.938;8.464;2022-09-21T05:11:27;4.93;;;2.70;;
22097;SDS011;11215;51.938;8.464;2022-09-21T05:13:53;3.90;;;3.07;;
22097;SDS011;11215;51.938;8.464;2022-09-21T05:16:18;3.20;;;2.57;;
22097;SDS011;11215;51.938;8.464;2022-09-21T05:18:45;5.00;;;3.23;;
22097;SDS011;11215;51.938;8.464;2022-09-21T05:21:12;3.50;;;2.67;;
22097;SDS011;11215;51.938;8.464;2022-09-21T05:23:38;5.50;;;2.70;;
22097;SDS011;11215;51.938;8.464;2022-09-21T05:26:04;3.13;;;2.60;;
22097;SDS011;11215;51.938;8.464;2022-09-21T05:28:31;4.83;;;2.50;;
22097;SDS011;11215;51.938;8.464;2022-09-21T05:31:05;2.90;;;2.53;;
22097;SDS011;11215;51.938;8.464;2022-09-21T05:33:57;3.87;;;2.63;;
22097;SDS011;11215;51.938;8.464;2022-09-21T05:36:39;4.53;;;4.00;;
22097;SDS011;11215;51.938;8.464;2022-09-21T05:39:27;5.37;;;4.27;;
22097;SDS011;11215;51.938;8.464;2022-09-21T05:41:53;5.10;;;3.73;;
22097;SDS011;11215;51.938;8.464;2022-09-21T05:44:19;7.57;;;5.27;;
22097;SDS011;11215;51.938;8.464;2022-09-21T05:47:02;6.00;;;5.43;;
22097;SDS011;11215;51.938;8.464;2022-09-21T05:49:48;5.90;;;4.83;;
22097;SDS011;11215;51.938;8.464;2022-09-21T05:52:39;6.90;;;4.23;;
22097;SDS011;11215;51.938;8.464;2022-09-21T05:55:18;6.90;;;4.70;;
22097;SDS011;11215;51.938;8.464;2022-09-21T06:00:25;6.00;;;4.23;;
22097;SDS011;11215;51.938;8.464;2022-09-21T06:05:53;6.87;;;4.13;;
22097;SDS011;11215;51.938;8.464;2022-09-21T06:08:20;5.63;;;3.73;;
22097;SDS011;11215;51.938;8.464;2022-09-21T06:10:46;4.47;;;3.50;;
22097;SDS011;11215;51.938;8.464;2022-09-21T06:13:12;5.00;;;3.80;;
22097;SDS011;11215;51.938;8.464;2022-09-21T06:15:38;5.03;;;3.90;;
22097;SDS011;11215;51.938;8.464;2022-09-21T06:18:05;6.30;;;3.70;;
22097;SDS011;11215;51.938;8.464;2022-09-21T06:20:31;4.57;;;3.73;;
22097;SDS011;11215;51.938;8.464;2022-09-21T06:23:04;3.93;;;3.47;;
22097;SDS011;11215;51.938;8.464;2022-09-21T06:25:31;3.63;;;3.27;;
22097;SDS011;11215;51.938;8.464;2022-09-21T06:28:04;5.57;;;3.80;;
22097;SDS011;11215;51.938;8.464;2022-09-21T06:30:31;6.40;;;3.80;;
22097;SDS011;11215;51.938;8.464;2022-09-21T06:33:00;3.87;;;3.07;;
22097;SDS011;11215;51.938;8.464;2022-09-21T06:35:27;7.37;;;3.73;;
22097;SDS011;11215;51.938;8.464;2022-09-21T06:37:57;5.33;;;3.70;;
22097;SDS011;11215;51.938;8.464;2022-09-21T06:40:33;4.73;;;3.37;;
22097;SDS011;11215;51.938;8.464;2022-09-21T06:43:01;8.13;;;4.23;;
22097;SDS011;11215;51.938;8.464;2022-09-21T06:45:28;5.47;;;4.07;;
22097;SDS011;11215;51.938;8.464;2022-09-21T06:47:55;8.80;;;4.43;;
22097;SDS011;11215;51.938;8.464;2022-09-21T06:50:21;5.00;;;3.77;;
22097;SDS011;11215;51.938;8.464;2022-09-21T06:52:47;6.40;;;3.90;;
22097;SDS011;11215;51.938;8.464;2022-09-21T06:55:13;6.47;;;4.00;;
22097;SDS011;11215;51.938;8.464;2022-09-21T06:57:39;4.60;;;3.40;;
22097;SDS011;11215;51.938;8.464;2022-09-21T07:00:06;5.03;;;4.53;;
22097;SDS011;11215;51.938;8.464;2022-09-21T07:02:33;6.23;;;4.17;;
22097;SDS011;11215;51.938;8.464;2022-09-21T07:04:59;7.30;;;4.43;;
22097;SDS011;11215;51.938;8.464;2022-09-21T07:07:26;6.13;;;4.60;;
22097;SDS011;11215;51.938;8.464;2022-09-21T07:09:56;5.37;;;4.27;;
22097;SDS011;11215;51.938;8.464;2022-09-21T07:12:23;5.07;;;4.43;;
22097;SDS011;11215;51.938;8.464;2022-09-21T07:14:49;4.60;;;3.97;;
22097;SDS011;11215;51.938;8.464;2022-09-21T07:17:14;5.67;;;4.77;;
22097;SDS011;11215;51.938;8.464;2022-09-21T07:19:40;5.90;;;4.33;;
22097;SDS011;11215;51.938;8.464;2022-09-21T07:22:06;6.27;;;4.60;;
22097;SDS011;11215;51.938;8.464;2022-09-21T07:24:31;5.50;;;4.90;;
22097;SDS011;11215;51.938;8.464;2022-09-21T07:26:57;5.40;;;4.90;;
22097;SDS011;11215;51.938;8.464;2022-09-21T07:29:23;6.60;;;5.57;;
22097;SDS011;11215;51.938;8.464;2022-09-21T07:31:49;9.93;;;6.50;;
22097;SDS011;11215;51.938;8.464;2022-09-21T07:34:14;9.53;;;6.17;;
22097;SDS011;11215;51.938;8.464;2022-09-21T07:36:40;11.37;;;9.20;;
22097;SDS011;11215;51.938;8.464;2022-09-21T07:39:07;8.50;;;6.60;;
22097;SDS011;11215;51.938;8.464;2022-09-21T07:41:33;7.20;;;6.27;;
22097;SDS011;11215;51.938;8.464;2022-09-21T07:44:00;6.60;;;5.77;;
22097;SDS011;11215;51.938;8.464;2022-09-21T07:46:26;7.90;;;5.77;;
22097;SDS011;11215;51.938;8.464;2022-09-21T07:48:55;8.17;;;6.20;;
22097;SDS011;11215;51.938;8.464;2022-09-21T07:51:21;8.77;;;6.00;;
22097;SDS011;11215;51.938;8.464;2022-09-21T07:53:52;8.67;;;6.33;;
22097;SDS011;11215;51.938;8.464;2022-09-21T07:56:20;9.43;;;6.97;;
22097;SDS011;11215;51.938;8.464;2022-09-21T07:58:47;10.90;;;8.63;;
22097;SDS011;11215;51.938;8.464;2022-09-21T08:01:32;21.73;;;19.43;;
22097;SDS011;11215;51.938;8.464;2022-09-21T08:03:58;11.17;;;9.87;;
22097;SDS011;11215;51.938;8.464;2022-09-21T08:06:25;11.23;;;10.03;;
22097;SDS011;11215;51.938;8.464;2022-09-21T08:08:53;8.57;;;7.67;;
22097;SDS011;11215;51.938;8.464;2022-09-21T08:11:19;12.77;;;7.93;;
22097;SDS011;11215;51.938;8.464;2022-09-21T08:13:47;9.37;;;8.07;;
22097;SDS011;11215;51.938;8.464;2022-09-21T08:16:13;14.63;;;12.37;;
22097;SDS011;11215;51.938;8.464;2022-09-21T08:18:39;10.07;;;7.53;;
22097;SDS011;11215;51.938;8.464;2022-09-21T08:21:05;11.17;;;9.97;;
22097;SDS011;11215;51.938;8.464;2022-09-21T08:23:32;11.43;;;9.60;;
22097;SDS011;11215;51.938;8.464;2022-09-21T08:25:58;13.60;;;11.47;;
22097;SDS011;11215;51.938;8.464;2022-09-21T08:28:26;11.17;;;7.90;;
22097;SDS011;11215;51.938;8.464;2022-09-21T08:30:52;9.77;;;7.43;;
22097;SDS011;11215;51.938;8.464;2022-09-21T08:33:18;10.37;;;7.20;;
22097;SDS011;11215;51.938;8.464;2022-09-21T08:35:50;7.83;;;6.27;;
22097;SDS011;11215;51.938;8.464;2022-09-21T08:38:17;9.20;;;6.53;;
22097;SDS011;11215;51.938;8.464;2022-09-21T08:40:42;8.87;;;7.00;;
22097;SDS011;11215;51.938;8.464;2022-09-21T08:43:09;10.40;;;7.03;;
22097;SDS011;11215;51.938;8.464;2022-09-21T08:45:43;13.10;;;9.70;;
22097;SDS011;11215;51.938;8.464;2022-09-21T08:48:21;9.50;;;6.87;;
22097;SDS011;11215;51.938;8.464;2022-09-21T08:50:50;8.03;;;6.07;;
22097;SDS011;11215;51.938;8.464;2022-09-21T08:53:19;9.90;;;6.47;;
22097;SDS011;11215;51.938;8.464;2022-09-21T08:55:50;11.83;;;9.20;;
22097;SDS011;11215;51.938;8.464;2022-09-21T08:58:23;9.83;;;6.20;;
22097;SDS011;11215;51.938;8.464;2022-09-21T09:04:08;8.50;;;7.20;;
22097;SDS011;11215;51.938;8.464;2022-09-21T09:06:40;7.07;;;5.30;;
22097;SDS011;11215;51.938;8.464;2022-09-21T09:11:56;9.30;;;5.13;;
22097;SDS011;11215;51.938;8.464;2022-09-21T09:14:48;5.13;;;4.27;;
22097;SDS011;11215;51.938;8.464;2022-09-21T09:19:45;10.37;;;7.10;;
22097;SDS011;11215;51.938;8.464;2022-09-21T09:22:25;11.30;;;5.30;;
22097;SDS011;11215;51.938;8.464;2022-09-21T09:24:57;7.83;;;5.00;;
22097;SDS011;11215;51.938;8.464;2022-09-21T09:27:35;5.57;;;4.00;;
22097;SDS011;11215;51.938;8.464;2022-09-21T09:32:44;6.17;;;4.30;;
22097;SDS011;11215;51.938;8.464;2022-09-21T09:35:34;5.97;;;3.47;;
22097;SDS011;11215;51.938;8.464;2022-09-21T09:43:17;5.40;;;4.30;;
22097;SDS011;11215;51.938;8.464;2022-09-21T09:46:07;6.47;;;4.23;;
22097;SDS011;11215;51.938;8.464;2022-09-21T09:51:28;10.97;;;3.70;;
22097;SDS011;11215;51.938;8.464;2022-09-21T09:53:57;5.47;;;3.43;;
22097;SDS011;11215;51.938;8.464;2022-09-21T09:56:24;6.13;;;3.40;;
22097;SDS011;11215;51.938;8.464;2022-09-21T09:59:00;7.40;;;3.60;;
22097;SDS011;11215;51.938;8.464;2022-09-21T10:01:36;5.67;;;2.90;;
22097;SDS011;11215;51.938;8.464;2022-09-21T10:04:14;5.40;;;3.00;;
22097;SDS011;11215;51.938;8.464;2022-09-21T10:06:46;7.20;;;3.57;;
22097;SDS011;11215;51.938;8.464;2022-09-21T10:09:31;5.27;;;3.13;;
22097;SDS011;11215;51.938;8.464;2022-09-21T10:11:59;6.60;;;3.17;;
22097;SDS011;11215;51.938;8.464;2022-09-21T10:14:43;4.17;;;3.27;;
22097;SDS011;11215;51.938;8.464;2022-09-21T10:17:15;5.90;;;3.50;;
22097;SDS011;11215;51.938;8.464;2022-09-21T10:19:42;5.50;;;2.93;;
22097;SDS011;11215;51.938;8.464;2022-09-21T10:22:13;4.40;;;2.87;;
22097;SDS011;11215;51.938;8.464;2022-09-21T10:24:44;4.63;;;2.57;;
22097;SDS011;11215;51.938;8.464;2022-09-21T10:27:14;3.50;;;2.40;;
22097;SDS011;11215;51.938;8.464;2022-09-21T10:29:47;5.03;;;2.80;;
22097;SDS011;11215;51.938;8.464;2022-09-21T10:32:28;3.00;;;2.63;;
22097;SDS011;11215;51.938;8.464;2022-09-21T10:35:12;4.73;;;2.40;;
22097;SDS011;11215;51.938;8.464;2022-09-21T10:37:39;6.17;;;3.00;;
22097;SDS011;11215;51.938;8.464;2022-09-21T10:42:41;6.13;;;2.77;;
22097;SDS011;11215;51.938;8.464;2022-09-21T10:45:14;5.80;;;2.97;;
22097;SDS011;11215;51.938;8.464;2022-09-21T10:47:48;6.23;;;2.60;;
22097;SDS011;11215;51.938;8.464;2022-09-21T10:50:33;4.63;;;2.33;;
22097;SDS011;11215;51.938;8.464;2022-09-21T10:53:11;2.90;;;1.90;;
22097;SDS011;11215;51.938;8.464;2022-09-21T10:55:59;4.67;;;1.60;;
22097;SDS011;11215;51.938;8.464;2022-09-21T10:58:27;2.33;;;1.70;;
22097;SDS011;11215;51.938;8.464;2022-09-21T11:00:53;5.40;;;2.10;;
22097;SDS011;11215;51.938;8.464;2022-09-21T11:04:04;4.80;;;1.83;;
22097;SDS011;11215;51.938;8.464;2022-09-21T11:06:24;5.30;;;1.97;;
22097;SDS011;11215;51.938;8.464;2022-09-21T11:09:19;4.87;;;1.97;;
22097;SDS011;11215;51.938;8.464;2022-09-21T11:12:06;2.23;;;1.73;;
22097;SDS011;11215;51.938;8.464;2022-09-21T11:17:43;4.03;;;1.53;;
22097;SDS011;11215;51.938;8.464;2022-09-21T11:20:27;4.20;;;1.80;;
22097;SDS011;11215;51.938;8.464;2022-09-21T11:25:57;3.80;;;2.10;;
22097;SDS011;11215;51.938;8.464;2022-09-21T11:57:44;5.80;;;1.80;;
22097;SDS011;11215;51.938;8.464;2022-09-21T12:00:19;4.93;;;1.57;;
22097;SDS011;11215;51.938;8.464;2022-09-21T12:16:41;2.97;;;1.60;;
22097;SDS011;11215;51.938;8.464;2022-09-21T12:22:08;3.60;;;1.60;;
22097;SDS011;11215;51.938;8.464;2022-09-21T12:24:40;2.43;;;1.33;;
22097;SDS011;11215;51.938;8.464;2022-09-21T12:27:38;4.73;;;1.40;;
22097;SDS011;11215;51.938;8.464;2022-09-21T12:30:14;10.27;;;5.63;;
22097;SDS011;11215;51.938;8.464;2022-09-21T12:32:54;9.30;;;4.90;;
22097;SDS011;11215;51.938;8.464;2022-09-21T12:35:27;10.70;;;8.20;;
22097;SDS011;11215;51.938;8.464;2022-09-21T12:37:56;6.10;;;2.90;;
22097;SDS011;11215;51.938;8.464;2022-09-21T12:40:41;4.80;;;2.33;;
22097;SDS011;11215;51.938;8.464;2022-09-21T12:46:13;3.80;;;1.40;;
22097;SDS011;11215;51.938;8.464;2022-09-21T12:48:45;4.50;;;1.63;;
22097;SDS011;11215;51.938;8.464;2022-09-21T12:53:54;1.73;;;1.23;;
22097;SDS011;11215;51.938;8.464;2022-09-21T13:09:56;3.60;;;1.10;;
22097;SDS011;11215;51.938;8.464;2022-09-21T13:12:27;6.77;;;1.13;;
22097;SDS011;11215;51.938;8.464;2022-09-21T13:15:02;1.70;;;0.83;;
22097;SDS011;11215;51.938;8.464;2022-09-21T13:17:38;4.30;;;1.00;;
22097;SDS011;11215;51.938;8.464;2022-09-21T13:20:05;2.80;;;1.13;;
22097;SDS011;11215;51.938;8.464;2022-09-21T13:22:43;6.83;;;1.10;;
22097;SDS011;11215;51.938;8.464;2022-09-21T13:25:22;3.93;;;1.17;;
22097;SDS011;11215;51.938;8.464;2022-09-21T13:30:35;2.40;;;1.00;;
22097;SDS011;11215;51.938;8.464;2022-09-21T13:38:29;1.53;;;1.00;;
22097;SDS011;11215;51.938;8.464;2022-09-21T13:41:41;2.47;;;0.90;;
22097;SDS011;11215;51.938;8.464;2022-09-21T13:51:49;3.03;;;1.03;;
22097;SDS011;11215;51.938;8.464;2022-09-21T13:54:32;1.93;;;1.00;;
22097;SDS011;11215;51.938;8.464;2022-09-21T13:59:39;4.27;;;1.17;;
22097;SDS011;11215;51.938;8.464;2022-09-21T14:02:18;2.80;;;1.00;;
22097;SDS011;11215;51.938;8.464;2022-09-21T14:04:49;3.73;;;1.10;;
22097;SDS011;11215;51.938;8.464;2022-09-21T14:07:16;4.83;;;1.20;;
22097;SDS011;11215;51.938;8.464;2022-09-21T14:09:52;4.37;;;0.93;;
22097;SDS011;11215;51.938;8.464;2022-09-21T14:12:24;2.53;;;1.00;;
22097;SDS011;11215;51.938;8.464;2022-09-21T14:18:07;2.77;;;1.03;;
22097;SDS011;11215;51.938;8.464;2022-09-21T14:20:33;3.23;;;1.07;;
22097;SDS011;11215;51.938;8.464;2022-09-21T14:25:52;2.47;;;1.00;;
22097;SDS011;11215;51.938;8.464;2022-09-21T14:28:33;3.43;;;1.23;;
22097;SDS011;11215;51.938;8.464;2022-09-21T14:31:13;3.33;;;1.30;;
22097;SDS011;11215;51.938;8.464;2022-09-21T14:36:14;1.27;;;0.90;;
22097;SDS011;11215;51.938;8.464;2022-09-21T14:38:54;1.93;;;1.03;;
22097;SDS011;11215;51.938;8.464;2022-09-21T14:41:24;5.47;;;1.20;;
22097;SDS011;11215;51.938;8.464;2022-09-21T14:43:56;2.10;;;1.00;;
22097;SDS011;11215;51.938;8.464;2022-09-21T14:46:26;3.27;;;0.93;;
22097;SDS011;11215;51.938;8.464;2022-09-21T14:51:37;2.83;;;0.80;;
22097;SDS011;11215;51.938;8.464;2022-09-21T14:56:50;2.37;;;0.80;;
22097;SDS011;11215;51.938;8.464;2022-09-21T14:59:44;2.50;;;0.87;;
22097;SDS011;11215;51.938;8.464;2022-09-21T15:02:25;2.70;;;0.80;;
22097;SDS011;11215;51.938;8.464;2022-09-21T15:04:59;1.37;;;1.00;;
22097;SDS011;11215;51.938;8.464;2022-09-21T15:11:20;1.57;;;0.90;;
22097;SDS011;11215;51.938;8.464;2022-09-21T15:16:52;2.27;;;0.80;;
22097;SDS011;11215;51.938;8.464;2022-09-21T15:19:22;3.70;;;1.03;;
22097;SDS011;11215;51.938;8.464;2022-09-21T15:21:52;2.37;;;1.00;;
22097;SDS011;11215;51.938;8.464;2022-09-21T15:24:46;2.67;;;0.87;;
22097;SDS011;11215;51.938;8.464;2022-09-21T15:27:19;2.33;;;0.90;;
22097;SDS011;11215;51.938;8.464;2022-09-21T15:29:48;1.73;;;0.80;;
22097;SDS011;11215;51.938;8.464;2022-09-21T15:35:02;4.07;;;0.93;;
22097;SDS011;11215;51.938;8.464;2022-09-21T15:37:34;2.67;;;1.00;;
22097;SDS011;11215;51.938;8.464;2022-09-21T15:40:04;2.97;;;0.90;;
22097;SDS011;11215;51.938;8.464;2022-09-21T15:42:40;1.87;;;0.60;;
22097;SDS011;11215;51.938;8.464;2022-09-21T15:45:47;2.03;;;1.00;;
22097;SDS011;11215;51.938;8.464;2022-09-21T15:48:23;2.63;;;0.90;;
22097;SDS011;11215;51.938;8.464;2022-09-21T15:51:13;4.73;;;0.90;;
22097;SDS011;11215;51.938;8.464;2022-09-21T15:53:48;2.50;;;0.90;;
22097;SDS011;11215;51.938;8.464;2022-09-21T15:56:18;2.70;;;0.90;;
22097;SDS011;11215;51.938;8.464;2022-09-21T15:58:46;3.90;;;0.80;;
22097;SDS011;11215;51.938;8.464;2022-09-21T16:01:18;2.50;;;1.27;;
22097;SDS011;11215;51.938;8.464;2022-09-21T16:03:47;4.17;;;1.00;;
22097;SDS011;11215;51.938;8.464;2022-09-21T16:06:36;3.60;;;0.80;;
22097;SDS011;11215;51.938;8.464;2022-09-21T16:11:51;3.60;;;1.13;;
22097;SDS011;11215;51.938;8.464;2022-09-21T16:14:18;2.97;;;1.03;;
22097;SDS011;11215;51.938;8.464;2022-09-21T16:20:21;2.37;;;0.80;;
22097;SDS011;11215;51.938;8.464;2022-09-21T16:22:39;1.53;;;0.90;;
22097;SDS011;11215;51.938;8.464;2022-09-21T16:27:52;2.13;;;0.67;;
22097;SDS011;11215;51.938;8.464;2022-09-21T16:33:35;1.13;;;0.90;;
22097;SDS011;11215;51.938;8.464;2022-09-21T16:36:02;2.73;;;1.00;;
22097;SDS011;11215;51.938;8.464;2022-09-21T16:38:29;2.37;;;0.80;;
22097;SDS011;11215;51.938;8.464;2022-09-21T16:40:56;5.47;;;0.80;;
22097;SDS011;11215;51.938;8.464;2022-09-21T16:43:23;4.23;;;0.83;;
22097;SDS011;11215;51.938;8.464;2022-09-21T16:45:49;1.97;;;0.80;;
22097;SDS011;11215;51.938;8.464;2022-09-21T16:48:15;1.30;;;0.70;;
22097;SDS011;11215;51.938;8.464;2022-09-21T16:50:41;2.20;;;0.80;;
22097;SDS011;11215;51.938;8.464;2022-09-21T16:53:10;3.33;;;1.07;;
22097;SDS011;11215;51.938;8.464;2022-09-21T16:55:35;4.40;;;1.53;;
22097;SDS011;11215;51.938;8.464;2022-09-21T16:58:01;6.00;;;1.40;;
22097;SDS011;11215;51.938;8.464;2022-09-21T17:00:28;3.23;;;1.10;;
22097;SDS011;11215;51.938;8.464;2022-09-21T17:02:57;2.73;;;1.20;;
22097;SDS011;11215;51.938;8.464;2022-09-21T17:05:22;7.40;;;1.47;;
22097;SDS011;11215;51.938;8.464;2022-09-21T17:07:55;4.97;;;1.60;;
22097;SDS011;11215;51.938;8.464;2022-09-21T17:10:26;4.33;;;2.20;;
22097;SDS011;11215;51.938;8.464;2022-09-21T17:12:55;2.40;;;1.33;;
22097;SDS011;11215;51.938;8.464;2022-09-21T17:15:22;1.80;;;1.30;;
22097;SDS011;11215;51.938;8.464;2022-09-21T17:17:49;3.80;;;1.60;;
22097;SDS011;11215;51.938;8.464;2022-09-21T17:20:19;4.63;;;1.67;;
22097;SDS011;11215;51.938;8.464;2022-09-21T17:22:51;1.60;;;1.40;;
22097;SDS011;11215;51.938;8.464;2022-09-21T17:25:16;3.53;;;1.73;;
22097;SDS011;11215;51.938;8.464;2022-09-21T17:27:42;4.43;;;1.77;;
22097;SDS011;11215;51.938;8.464;2022-09-21T17:30:10;2.40;;;1.23;;
22097;SDS011;11215;51.938;8.464;2022-09-21T17:32:37;2.57;;;1.20;;
22097;SDS011;11215;51.938;8.464;2022-09-21T17:35:12;2.43;;;1.43;;
22097;SDS011;11215;51.938;8.464;2022-09-21T17:37:42;4.00;;;1.50;;
22097;SDS011;11215;51.938;8.464;2022-09-21T17:40:09;5.07;;;1.70;;
22097;SDS011;11215;51.938;8.464;2022-09-21T17:42:39;3.77;;;1.50;;
22097;SDS011;11215;51.938;8.464;2022-09-21T17:47:49;3.87;;;2.60;;
22097;SDS011;11215;51.938;8.464;2022-09-21T17:50:25;6.43;;;3.77;;
22097;SDS011;11215;51.938;8.464;2022-09-21T17:52:52;4.07;;;1.63;;
22097;SDS011;11215;51.938;8.464;2022-09-21T17:55:37;5.33;;;1.90;;
22097;SDS011;11215;51.938;8.464;2022-09-21T18:03:14;5.03;;;3.60;;
22097;SDS011;11215;51.938;8.464;2022-09-21T18:05:47;4.33;;;2.07;;
22097;SDS011;11215;51.938;8.464;2022-09-21T18:08:15;2.47;;;1.20;;
22097;SDS011;11215;51.938;8.464;2022-09-21T18:10:43;2.83;;;1.23;;
22097;SDS011;11215;51.938;8.464;2022-09-21T18:15:55;2.43;;;1.80;;
22097;SDS011;11215;51.938;8.464;2022-09-21T18:26:24;2.33;;;1.80;;
22097;SDS011;11215;51.938;8.464;2022-09-21T18:28:50;2.43;;;2.03;;
22097;SDS011;11215;51.938;8.464;2022-09-21T18:34:41;3.97;;;2.10;;
22097;SDS011;11215;51.938;8.464;2022-09-21T18:40:22;2.57;;;1.70;;